This is the latest recevied weather packets stored in our database for station/object W4KAB. If no packets are shown the sender has not sent any weather packets the latest 1 day(s).
| Time | Temp. | Humidity | Pressure | Rain* | Wind** | Luminosity | Snow |
|---|---|---|---|---|---|---|---|
| 1836274628 | 17.78° C | 95% | 1020.8 hPa | 0 mm | 0 m/s | 0 W/m² | - |
| 1836274481 | 17.22° C | 95% | 1020.8 hPa | 0 mm | 0 m/s | 0 W/m² | - |
| 1836274325 | 17.78° C | 94% | 1020.8 hPa | 0 mm | 0 m/s | 0 W/m² | - |
| 1836274179 | 17.22° C | 95% | 1020.8 hPa | 0 mm | 0 m/s | 0 W/m² | - |
| 1836274024 | 17.78° C | 94% | 1020.8 hPa | 0 mm | 0 m/s | 0 W/m² | - |
| 1778032845 | 20° C | 53% | 1015.3 hPa | 0 mm | 0 m/s | 0 W/m² | - |
| 1778032542 | 20° C | 55% | 1015.2 hPa | 0 mm | 0 m/s | 0 W/m² | - |
| 1778032239 | 19.44° C | 56% | 1015.2 hPa | 0 mm | 0 m/s | 0 W/m² | - |
| 1778031936 | 19.44° C | 57% | 1015.2 hPa | 0 mm | 0 m/s | 0 W/m² | - |
| 1778031632 | 19.44° C | 56% | 1015.2 hPa | 0 mm | 0 m/s | 0 W/m² | - |
| 1778031331 | 19.44° C | 56% | 1015.2 hPa | 0 mm | 0 m/s | 0 W/m² | - |
| 1778031027 | 19.44° C | 57% | 1015.1 hPa | 0 mm | 0 m/s | 0 W/m² | - |
| 1778030723 | 18.89° C | 56% | 1015.2 hPa | 0 mm | 0 m/s | 0 W/m² | - |
| 1778030420 | 18.89° C | 56% | 1015.1 hPa | 0 mm | 0 m/s | 0 W/m² | - |
| 1778030128 | 19.44° C | 55% | 1015.2 hPa | 0 mm | 0 m/s | 0 W/m² | - |
| 1778029813 | 19.44° C | 55% | 1015.2 hPa | 0 mm | 0 m/s | 0 W/m² | - |
| 1778029508 | 18.89° C | 55% | 1014.9 hPa | 0 mm | 0 m/s | 0 W/m² | - |
| 1778029203 | 18.89° C | 55% | 1015 hPa | 0 mm | 0 m/s | 0 W/m² | - |
| 1778028901 | 18.89° C | 55% | 1015.2 hPa | 0 mm | 0 m/s | 0 W/m² | - |
| 1778028596 | 19.44° C | 55% | 1015.2 hPa | 0 mm | 0 m/s | 0 W/m² | - |
| 1778028294 | 19.44° C | 54% | 1015.3 hPa | 0 mm | 0 m/s | 0 W/m² | - |
| 1778027990 | 19.44° C | 54% | 1014.8 hPa | 0 mm | 0 m/s | 0 W/m² | - |
| 1778027687 | 19.44° C | 54% | 1014.9 hPa | 0 mm | 0 m/s | 0 W/m² | - |
| 1778027383 | 20° C | 53% | 1014.7 hPa | 0 mm | 0 m/s | 0 W/m² | - |
| 1778027079 | 20° C | 53% | 1014.8 hPa | 0 mm | 0 m/s | 0 W/m² | - |
* Rain latest hour (hover to see other rain measurements)
** Current wind speed in m/s (hover to see current wind gust speed)